Time;durP1;ratioP1;P1;durP2;ratioP2;P2;SDS_P1;SDS_P2;PMS_P1;PMS_P2;Temp;Humidity;BMP_temperature;BMP_pressure;BME280_temperature;BME280_humidity;BME280_pressure;Samples;Min_cycle;Max_cycle;Signal;HPM_P1;HPM_P2
2023/01/25 00:00:54;;;;;;;27.58;17.52;;;1.10;99.90;;;;;;5055420;28;20071;-89
2023/01/25 00:03:20;;;;;;;26.50;17.05;;;;;;;;;;5088245;28;20436;-90
2023/01/25 00:05:46;;;;;;;28.73;18.60;;;1.20;99.90;;;;;;5067835;28;20079;-90
2023/01/25 00:08:11;;;;;;;29.10;18.85;;;1.20;99.90;;;;;;5091421;28;20075;-91
2023/01/25 00:10:37;;;;;;;28.50;18.90;;;2.80;99.90;;;;;;5070894;28;20503;-89
2023/01/25 00:13:03;;;;;;;28.52;18.33;;;1.20;99.90;;;;;;5065358;28;20043;-89
2023/01/25 00:15:29;;;;;;;29.33;18.60;;;1.20;99.90;;;;;;5049277;28;20040;-89
2023/01/25 00:17:55;;;;;;;31.27;18.30;;;1.20;99.90;;;;;;5108566;28;20438;-90
2023/01/25 00:20:20;;;;;;;28.73;18.58;;;1.20;99.90;;;;;;5099901;28;20044;-89
2023/01/25 00:22:46;;;;;;;28.10;17.55;;;1.10;99.90;;;;;;5056637;28;20028;-89
2023/01/25 00:25:12;;;;;;;29.00;17.25;;;1.20;99.90;;;;;;5071339;28;20496;-90
2023/01/25 00:27:37;;;;;;;27.60;17.52;;;1.30;99.90;;;;;;5072171;28;20042;-89
2023/01/25 00:30:04;;;;;;;30.48;18.58;;;1.20;99.90;;;;;;5061040;28;20033;-90
2023/01/25 00:32:46;;;;;;;29.55;18.55;;;1.10;99.90;;;;;;5064935;28;20078;-89
2023/01/25 00:35:12;;;;;;;28.30;18.77;;;1.20;99.90;;;;;;5081022;28;20040;-89
2023/01/25 00:37:39;;;;;;;29.42;18.83;;;1.80;99.90;;;;;;5025621;28;20036;-89
2023/01/25 00:40:05;;;;;;;29.92;18.77;;;1.10;99.90;;;;;;5067708;28;20041;-90
2023/01/25 00:42:31;;;;;;;26.73;17.25;;;1.10;99.90;;;;;;5038480;28;20043;-90
2023/01/25 00:44:57;;;;;;;30.13;18.95;;;3.00;99.90;;;;;;5050255;28;20040;-89
2023/01/25 00:47:23;;;;;;;29.33;17.85;;;1.10;99.90;;;;;;5053375;28;20032;-88
2023/01/25 00:49:49;;;;;;;30.30;18.60;;;1.10;99.90;;;;;;5070136;28;20044;-90
2023/01/25 00:52:14;;;;;;;31.38;18.90;;;1.10;99.90;;;;;;5071144;28;20442;-89
2023/01/25 00:54:40;;;;;;;31.40;19.13;;;1.20;99.90;;;;;;5048082;28;20035;-89
2023/01/25 00:57:07;;;;;;;30.30;18.88;;;;;;;;;;5078148;28;20043;-89
2023/01/25 00:59:33;;;;;;;30.70;19.23;;;;;;;;;;5067186;28;20048;-89
2023/01/25 01:01:59;;;;;;;32.05;20.10;;;1.20;99.90;;;;;;5057534;28;20060;-91
2023/01/25 01:04:25;;;;;;;29.60;18.67;;;1.10;99.90;;;;;;5071554;28;20059;-88
2023/01/25 01:06:52;;;;;;;32.00;19.92;;;1.10;99.90;;;;;;5055568;28;20036;-88
2023/01/25 01:09:18;;;;;;;32.50;19.67;;;0.10;99.90;;;;;;5065488;28;20070;-88
2023/01/25 01:11:45;;;;;;;32.92;20.73;;;1.10;99.90;;;;;;5067955;28;20515;-91
2023/01/25 01:14:11;;;;;;;32.13;19.98;;;3.00;99.90;;;;;;5070727;28;20177;-89
2023/01/25 01:16:37;;;;;;;31.13;19.13;;;1.10;99.90;;;;;;5052315;28;20070;-89
2023/01/25 01:19:03;;;;;;;30.00;19.50;;;1.10;99.90;;;;;;5053196;28;20059;-90
2023/01/25 01:21:29;;;;;;;31.60;19.52;;;-0.10;99.90;;;;;;5073376;28;20048;-90
2023/01/25 01:23:55;;;;;;;29.15;17.83;;;1.10;99.90;;;;;;5054707;28;20116;-89
2023/01/25 01:26:21;;;;;;;30.30;18.45;;;;;;;;;;5067079;28;20132;-89
2023/01/25 01:28:48;;;;;;;31.20;18.98;;;1.10;99.90;;;;;;5057101;28;20097;-90
2023/01/25 01:31:19;;;;;;;29.60;18.13;;;1.10;99.90;;;;;;5056416;28;20036;-89
2023/01/25 01:33:54;;;;;;;33.60;19.65;;;1.20;99.90;;;;;;5059210;28;20028;-91
2023/01/25 01:36:21;;;;;;;31.42;19.08;;;0.90;99.90;;;;;;5072534;28;20076;-91
2023/01/25 01:38:50;;;;;;;31.90;19.60;;;;;;;;;;5075365;28;20033;-90
2023/01/25 01:41:17;;;;;;;31.58;19.83;;;1.00;99.90;;;;;;5069829;28;20040;-91
2023/01/25 01:43:43;;;;;;;30.83;18.35;;;1.00;99.90;;;;;;5062033;28;20073;-91
2023/01/25 01:46:32;;;;;;;29.25;17.63;;;1.00;99.90;;;;;;5070959;28;20127;-90
2023/01/25 01:49:09;;;;;;;29.83;18.52;;;1.00;99.90;;;;;;5086442;28;20042;-91
2023/01/25 01:51:57;;;;;;;30.30;18.63;;;0.90;99.90;;;;;;5055032;28;20135;-90
2023/01/25 01:54:26;;;;;;;30.00;18.30;;;0.80;99.90;;;;;;5061745;28;20501;-90
2023/01/25 01:57:11;;;;;;;30.00;17.80;;;0.90;99.90;;;;;;5073056;28;20492;-91
2023/01/25 01:59:43;;;;;;;29.48;18.55;;;0.90;99.90;;;;;;5066099;28;20531;-90
2023/01/25 02:02:09;;;;;;;31.10;18.73;;;;;;;;;;5068823;28;20099;-90
2023/01/25 02:04:36;;;;;;;32.33;19.33;;;0.90;99.90;;;;;;5071805;28;20071;-91
2023/01/25 02:07:05;;;;;;;29.63;18.25;;;0.90;99.90;;;;;;5044962;28;20040;-91
2023/01/25 02:09:32;;;;;;;30.73;18.90;;;2.50;99.90;;;;;;5063979;28;20082;-91
2023/01/25 02:11:59;;;;;;;30.52;18.63;;;0.90;99.90;;;;;;5070921;28;20037;-92
2023/01/25 02:14:28;;;;;;;31.63;19.38;;;0.90;99.90;;;;;;5068149;28;20055;-92
2023/01/25 02:16:54;;;;;;;31.13;19.42;;;0.90;99.90;;;;;;5071459;28;20293;-91
2023/01/25 02:19:36;;;;;;;31.65;19.58;;;0.70;99.90;;;;;;5042755;28;20098;-92
2023/01/25 02:22:09;;;;;;;34.03;20.05;;;0.80;99.90;;;;;;5056292;28;20079;-90
2023/01/25 02:24:37;;;;;;;32.50;20.13;;;0.80;99.90;;;;;;5047284;28;20083;-91
2023/01/25 02:27:03;;;;;;;31.23;19.27;;;0.80;99.90;;;;;;5072441;28;20048;-91
2023/01/25 02:29:29;;;;;;;31.70;18.83;;;0.80;99.90;;;;;;5064209;28;20127;-90
2023/01/25 02:32:03;;;;;;;32.97;19.83;;;0.70;99.90;;;;;;5063683;28;20047;-89
2023/01/25 02:34:29;;;;;;;32.10;19.63;;;0.80;99.90;;;;;;5068266;28;20068;-90
2023/01/25 02:36:55;;;;;;;32.35;18.80;;;0.10;99.90;;;;;;5054824;28;20779;-89
2023/01/25 02:39:24;;;;;;;35.00;20.58;;;0.80;99.90;;;;;;5079380;28;20396;-92
2023/01/25 02:41:50;;;;;;;34.85;20.70;;;0.80;99.90;;;;;;5072758;28;20047;-91
2023/01/25 02:44:23;;;;;;;36.97;21.15;;;2.80;99.90;;;;;;5054499;28;20036;-90
2023/01/25 02:46:50;;;;;;;31.90;19.25;;;-2.40;99.90;;;;;;5069620;28;20036;-90
2023/01/25 02:49:17;;;;;;;31.55;19.58;;;0.80;99.90;;;;;;5069986;28;20565;-91
2023/01/25 02:51:46;;;;;;;34.50;21.02;;;0.80;99.90;;;;;;5071330;28;20231;-91
2023/01/25 02:54:13;;;;;;;35.47;20.27;;;0.80;99.90;;;;;;5058204;28;20428;-90
2023/01/25 02:56:40;;;;;;;34.55;20.77;;;0.80;99.90;;;;;;5048877;28;20131;-91
2023/01/25 02:59:09;;;;;;;37.85;22.60;;;0.80;99.90;;;;;;5070426;28;20036;-90
2023/01/25 03:01:40;;;;;;;38.25;22.38;;;0.80;99.90;;;;;;5049710;28;20401;-92
2023/01/25 03:04:06;;;;;;;37.92;22.52;;;0.80;99.90;;;;;;5063512;28;20115;-89
2023/01/25 03:06:35;;;;;;;41.05;23.45;;;;;;;;;;5081318;28;20086;-90
2023/01/25 03:09:03;;;;;;;38.00;22.95;;;0.80;99.90;;;;;;5089115;28;20118;-91
2023/01/25 03:11:28;;;;;;;37.83;22.67;;;0.70;99.90;;;;;;5068677;28;20093;-90
2023/01/25 03:13:54;;;;;;;42.33;24.88;;;0.70;99.90;;;;;;5061497;28;20035;-90
2023/01/25 03:16:20;;;;;;;40.83;23.30;;;0.80;99.90;;;;;;5071198;28;20090;-91
2023/01/25 03:18:45;;;;;;;43.08;25.38;;;0.70;99.90;;;;;;5050149;28;20161;-91
2023/01/25 03:21:17;;;;;;;39.97;23.50;;;0.70;99.90;;;;;;5054129;28;20072;-91
2023/01/25 03:23:44;;;;;;;40.55;23.58;;;0.80;99.90;;;;;;5070264;28;20129;-90
2023/01/25 03:26:18;;;;;;;41.42;24.30;;;0.80;99.90;;;;;;5055534;28;20048;-91
2023/01/25 03:28:44;;;;;;;47.08;26.42;;;0.80;99.90;;;;;;5076108;28;20719;-91
2023/01/25 03:31:15;;;;;;;43.58;25.05;;;0.80;99.90;;;;;;5046075;28;20391;-91
2023/01/25 03:33:41;;;;;;;44.28;26.20;;;0.80;99.90;;;;;;5061847;28;20031;-89
2023/01/25 03:36:08;;;;;;;41.30;24.58;;;0.80;99.90;;;;;;5056455;28;20032;-90
2023/01/25 03:38:35;;;;;;;45.05;26.63;;;0.80;99.90;;;;;;5069988;28;20036;-91
2023/01/25 03:41:01;;;;;;;46.90;26.55;;;2.00;99.90;;;;;;5073220;28;20072;-92
2023/01/25 03:43:30;;;;;;;43.78;26.08;;;0.80;99.90;;;;;;5067697;28;20512;-91
2023/01/25 03:46:01;;;;;;;43.20;25.58;;;0.80;99.90;;;;;;5065038;28;20074;-91
2023/01/25 03:48:28;;;;;;;42.92;25.98;;;0.80;99.90;;;;;;5044169;28;20047;-90
2023/01/25 03:50:57;;;;;;;42.30;25.63;;;0.80;99.90;;;;;;5071001;28;20412;-89
2023/01/25 03:53:28;;;;;;;45.05;26.38;;;0.80;99.90;;;;;;5073825;28;20074;-91
2023/01/25 03:55:57;;;;;;;45.10;26.67;;;0.70;99.90;;;;;;5045441;28;20436;-91
2023/01/25 03:58:23;;;;;;;47.95;26.70;;;0.80;99.90;;;;;;5066250;28;20039;-90
2023/01/25 04:00:48;;;;;;;46.30;26.05;;;0.80;99.90;;;;;;5080571;28;20193;-90
2023/01/25 04:03:16;;;;;;;46.38;26.25;;;-2.40;99.90;;;;;;5051382;28;20096;-92
2023/01/25 04:05:42;;;;;;;51.35;27.55;;;0.80;99.90;;;;;;5064495;28;20047;-91
2023/01/25 04:08:14;;;;;;;47.05;26.77;;;0.50;99.90;;;;;;5071976;28;20040;-91
2023/01/25 04:10:40;;;;;;;48.75;27.02;;;;;;;;;;5070081;28;20044;-90
2023/01/25 04:13:06;;;;;;;49.67;27.92;;;0.80;99.90;;;;;;5066994;28;20043;-90
2023/01/25 04:15:32;;;;;;;47.88;26.95;;;0.80;99.90;;;;;;5072039;28;20036;-91
2023/01/25 04:17:57;;;;;;;46.92;26.77;;;0.70;99.90;;;;;;5054749;28;20451;-92
2023/01/25 04:20:23;;;;;;;47.28;26.95;;;0.70;99.90;;;;;;5053180;28;20048;-91
2023/01/25 04:22:49;;;;;;;52.97;29.33;;;3.30;99.90;;;;;;5051781;28;20040;-91
2023/01/25 04:25:15;;;;;;;52.45;27.80;;;0.70;99.90;;;;;;5051045;28;20040;-91
2023/01/25 04:27:41;;;;;;;51.13;28.88;;;0.70;99.90;;;;;;5068555;28;20519;-90
2023/01/25 04:30:07;;;;;;;50.85;28.98;;;0.70;99.90;;;;;;5068129;28;20123;-90
2023/01/25 04:32:37;;;;;;;51.78;28.70;;;;;;;;;;5052300;28;20071;-91
2023/01/25 04:35:05;;;;;;;52.42;29.60;;;0.70;99.90;;;;;;5053265;28;20040;-91
2023/01/25 04:37:31;;;;;;;53.08;28.88;;;0.70;99.90;;;;;;5057841;28;20033;-91
2023/01/25 04:39:57;;;;;;;51.33;29.38;;;0.70;99.90;;;;;;5067767;28;20120;-91
2023/01/25 04:42:22;;;;;;;51.78;29.45;;;0.60;99.90;;;;;;5068160;28;20047;-91
2023/01/25 04:44:48;;;;;;;49.70;27.52;;;0.70;99.90;;;;;;5051886;28;20070;-91
2023/01/25 04:47:14;;;;;;;52.10;29.15;;;;;;;;;;5070837;28;20040;-90
2023/01/25 04:49:40;;;;;;;50.92;28.52;;;0.60;99.90;;;;;;5076172;28;20109;-91
2023/01/25 04:52:06;;;;;;;51.92;29.15;;;0.50;99.90;;;;;;5064096;28;20051;-90
2023/01/25 04:54:32;;;;;;;48.90;26.73;;;0.60;99.90;;;;;;5044251;28;20036;-92
2023/01/25 04:56:57;;;;;;;54.45;29.98;;;0.50;99.90;;;;;;5031269;28;20127;-92
2023/01/25 04:59:23;;;;;;;52.58;29.17;;;0.50;99.90;;;;;;5064153;28;20036;-91
2023/01/25 05:01:49;;;;;;;54.60;29.25;;;0.40;99.90;;;;;;5057508;28;20054;-91
2023/01/25 05:04:15;;;;;;;50.00;28.60;;;0.50;99.90;;;;;;5059143;28;20135;-91
2023/01/25 05:06:40;;;;;;;50.92;28.17;;;0.50;99.90;;;;;;5039653;28;20520;-90
2023/01/25 05:09:06;;;;;;;51.13;28.80;;;0.50;99.90;;;;;;5057917;28;20040;-91
2023/01/25 05:11:35;;;;;;;53.08;29.00;;;1.10;99.90;;;;;;5039188;28;20037;-90
2023/01/25 05:14:00;;;;;;;50.42;27.02;;;2.30;99.90;;;;;;5062700;28;20519;-89
2023/01/25 05:16:26;;;;;;;50.47;27.95;;;0.50;99.90;;;;;;5075505;28;20047;-90
2023/01/25 05:18:54;;;;;;;50.22;28.00;;;0.50;99.90;;;;;;5037775;28;20504;-90
2023/01/25 05:24:08;;;;;;;51.15;27.73;;;0.50;99.90;;;;;;5057651;28;20142;-90
2023/01/25 05:29:18;;;;;;;51.38;29.13;;;0.50;99.90;;;;;;5055115;28;20489;-91
2023/01/25 05:31:43;;;;;;;54.15;29.55;;;0.40;99.90;;;;;;5030645;28;20040;-90
2023/01/25 05:34:09;;;;;;;52.38;28.63;;;0.30;99.90;;;;;;5056642;28;20117;-90
2023/01/25 05:36:35;;;;;;;55.83;30.38;;;0.40;99.90;;;;;;5055844;28;20074;-90
2023/01/25 05:39:01;;;;;;;55.10;29.02;;;0.60;99.90;;;;;;5078941;28;20044;-89
2023/01/25 05:41:27;;;;;;;55.72;30.38;;;0.50;99.90;;;;;;5062033;28;20052;-91
2023/01/25 05:43:53;;;;;;;53.55;29.70;;;;;;;;;;5065940;28;20134;-90
2023/01/25 05:46:18;;;;;;;53.15;30.45;;;0.50;99.90;;;;;;5063258;28;20044;-90
2023/01/25 05:48:47;;;;;;;58.92;31.58;;;0.40;99.90;;;;;;5059609;28;20120;-90
2023/01/25 05:51:12;;;;;;;54.42;30.55;;;0.40;99.90;;;;;;5078546;28;20507;-91
2023/01/25 05:53:38;;;;;;;56.75;31.52;;;0.40;99.90;;;;;;5053421;28;20048;-91
2023/01/25 05:56:05;;;;;;;55.70;29.88;;;0.40;99.90;;;;;;5053935;28;20553;-89
2023/01/25 05:58:31;;;;;;;54.00;30.58;;;0.70;99.90;;;;;;5052980;28;20040;-90
2023/01/25 06:01:04;;;;;;;54.78;30.85;;;0.40;99.90;;;;;;5057389;28;20048;-88
2023/01/25 06:03:33;;;;;;;55.25;29.00;;;;;;;;;;5032915;28;20242;-89
2023/01/25 06:06:01;;;;;;;55.75;31.58;;;0.40;99.90;;;;;;5057151;28;20090;-89
2023/01/25 06:08:31;;;;;;;54.80;31.33;;;0.50;99.90;;;;;;5048929;28;20063;-90
2023/01/25 06:10:57;;;;;;;58.20;31.98;;;0.40;99.90;;;;;;5084055;28;20041;-90
2023/01/25 06:13:23;;;;;;;54.80;31.80;;;0.40;99.90;;;;;;5048849;28;20040;-90
2023/01/25 06:15:56;;;;;;;52.63;30.30;;;0.30;99.90;;;;;;5055529;28;20045;-90
2023/01/25 06:18:25;;;;;;;57.37;32.07;;;1.80;99.90;;;;;;5044891;28;20036;-90
2023/01/25 06:20:51;;;;;;;58.08;32.30;;;0.30;99.90;;;;;;5048043;28;20294;-90
2023/01/25 06:23:17;;;;;;;56.85;31.33;;;0.30;99.90;;;;;;5046074;28;20059;-89
2023/01/25 06:25:43;;;;;;;58.47;31.75;;;1.10;99.90;;;;;;5061819;28;20039;-88
2023/01/25 06:28:08;;;;;;;55.33;30.90;;;0.40;99.90;;;;;;5059482;28;20063;-88
2023/01/25 06:30:35;;;;;;;57.90;33.25;;;0.40;99.90;;;;;;5041487;28;20135;-89
2023/01/25 06:33:01;;;;;;;54.33;29.88;;;0.50;99.90;;;;;;5057153;28;20039;-89
2023/01/25 06:35:28;;;;;;;54.13;29.88;;;0.40;99.90;;;;;;5055313;28;20101;-89
2023/01/25 06:37:57;;;;;;;57.25;30.70;;;0.50;99.90;;;;;;5083806;28;20566;-88
2023/01/25 06:40:24;;;;;;;57.30;30.00;;;0.40;99.90;;;;;;5079868;28;20512;-89
2023/01/25 06:42:50;;;;;;;57.00;31.88;;;0.20;99.90;;;;;;5041156;28;20039;-90
2023/01/25 06:45:16;;;;;;;58.88;31.20;;;0.40;99.90;;;;;;5060336;28;20116;-90
2023/01/25 06:47:42;;;;;;;57.28;31.25;;;0.40;99.90;;;;;;5067453;28;20074;-89
2023/01/25 06:50:08;;;;;;;58.28;30.63;;;0.40;99.90;;;;;;5044439;28;20102;-88
2023/01/25 06:52:35;;;;;;;55.85;31.33;;;0.40;99.90;;;;;;5084481;28;20089;-89
2023/01/25 06:55:06;;;;;;;56.55;30.48;;;0.40;99.90;;;;;;5067972;28;20043;-90
2023/01/25 06:57:33;;;;;;;54.88;29.70;;;0.40;99.90;;;;;;5061672;28;20102;-90
2023/01/25 06:59:59;;;;;;;51.88;29.70;;;0.40;99.90;;;;;;5033972;28;20409;-89
2023/01/25 07:02:25;;;;;;;56.42;30.88;;;0.40;99.90;;;;;;4992387;28;1156500;-88
2023/01/25 07:04:50;;;;;;;55.45;30.45;;;0.90;99.90;;;;;;5053600;28;20287;-90
2023/01/25 07:07:16;;;;;;;55.70;29.65;;;0.30;99.90;;;;;;5045348;28;20739;-90
2023/01/25 07:09:42;;;;;;;56.13;30.20;;;0.70;99.90;;;;;;5073421;28;20044;-89
2023/01/25 07:12:08;;;;;;;54.50;29.98;;;0.30;99.90;;;;;;5036900;28;20036;-90
2023/01/25 07:14:34;;;;;;;52.00;28.52;;;0.30;99.90;;;;;;5044758;28;20126;-90
2023/01/25 07:16:59;;;;;;;50.65;28.33;;;0.40;99.90;;;;;;5068773;28;20127;-89
2023/01/25 07:19:25;;;;;;;53.38;29.73;;;0.20;99.90;;;;;;5043208;28;20041;-83
2023/01/25 07:21:51;;;;;;;53.80;30.08;;;0.30;99.90;;;;;;5045168;28;20115;-84
2023/01/25 07:24:19;;;;;;;51.75;29.30;;;0.20;99.90;;;;;;5055959;28;20036;-86
2023/01/25 07:26:45;;;;;;;51.92;28.80;;;0.20;99.90;;;;;;5051782;28;21001;-87
2023/01/25 07:29:13;;;;;;;52.55;28.65;;;1.70;99.90;;;;;;5073055;28;20033;-85
2023/01/25 07:31:40;;;;;;;52.45;29.52;;;0.10;99.90;;;;;;5064953;28;20048;-86
2023/01/25 07:34:09;;;;;;;50.50;28.23;;;0.20;99.90;;;;;;5064716;28;20481;-88
2023/01/25 07:36:36;;;;;;;54.58;29.45;;;0.80;99.90;;;;;;5077047;28;20081;-88
2023/01/25 07:39:02;;;;;;;53.47;29.15;;;;;;;;;;5071674;28;20067;-86
2023/01/25 07:41:27;;;;;;;50.28;27.30;;;0.20;99.90;;;;;;5051119;28;20046;-89
2023/01/25 07:43:53;;;;;;;49.65;27.17;;;0.10;99.90;;;;;;5060467;28;20115;-86
2023/01/25 07:46:20;;;;;;;52.30;27.70;;;1.60;99.90;;;;;;5054427;28;20067;-87
2023/01/25 07:48:51;;;;;;;52.13;28.08;;;0.10;99.90;;;;;;5065417;28;20032;-88
2023/01/25 07:51:22;;;;;;;50.65;28.13;;;0.10;99.90;;;;;;5054287;28;20102;-87
2023/01/25 07:53:50;;;;;;;50.75;27.85;;;0.10;99.90;;;;;;5065234;28;20036;-86
2023/01/25 07:56:18;;;;;;;51.40;28.48;;;0.10;99.90;;;;;;5068014;28;20044;-88
2023/01/25 07:58:44;;;;;;;51.38;28.55;;;0.60;99.90;;;;;;5067071;28;20200;-87
2023/01/25 08:01:12;;;;;;;51.05;27.52;;;0.10;99.90;;;;;;5060448;28;20603;-87
2023/01/25 08:03:38;;;;;;;49.83;26.35;;;0.10;99.90;;;;;;5056286;28;20056;-85
2023/01/25 08:06:05;;;;;;;51.20;28.52;;;1.60;99.90;;;;;;5076392;28;20048;-85
2023/01/25 08:08:32;;;;;;;50.85;28.95;;;0.10;99.90;;;;;;5052110;28;20044;-86
2023/01/25 08:11:10;;;;;;;49.55;27.58;;;0.10;99.90;;;;;;5062439;28;20409;-85
2023/01/25 08:13:36;;;;;;;50.08;27.90;;;0.10;99.90;;;;;;5079911;28;20119;-87
2023/01/25 08:16:02;;;;;;;50.00;28.17;;;0.40;99.90;;;;;;5059366;28;20119;-86
2023/01/25 08:18:28;;;;;;;49.53;28.30;;;0.10;99.90;;;;;;5027288;28;20040;-87
2023/01/25 08:20:58;;;;;;;48.85;27.35;;;0.10;99.90;;;;;;5053241;28;20501;-87
2023/01/25 08:23:23;;;;;;;48.55;27.95;;;0.10;99.90;;;;;;5059243;28;20553;-86
2023/01/25 08:25:49;;;;;;;50.40;28.70;;;0.10;99.90;;;;;;5053517;28;20043;-87
2023/01/25 08:28:15;;;;;;;47.17;26.88;;;0.00;99.90;;;;;;5059190;28;20516;-85
2023/01/25 08:30:41;;;;;;;45.97;27.33;;;0.10;99.90;;;;;;5054363;28;20039;-89
2023/01/25 08:33:07;;;;;;;45.80;26.58;;;;;;;;;;5047546;28;20132;-88
2023/01/25 08:35:35;;;;;;;48.83;27.52;;;0.10;99.90;;;;;;5060851;28;20037;-86
2023/01/25 08:38:01;;;;;;;45.17;25.55;;;0.10;99.90;;;;;;5043493;28;20040;-88
2023/01/25 08:40:27;;;;;;;42.22;24.73;;;0.10;99.90;;;;;;5045476;28;20040;-87
2023/01/25 08:42:53;;;;;;;44.97;25.75;;;0.10;99.90;;;;;;5035822;28;20230;-88
2023/01/25 08:45:19;;;;;;;43.65;25.70;;;-0.60;99.90;;;;;;5035011;28;20032;-87
2023/01/25 08:47:44;;;;;;;44.22;25.70;;;0.10;99.90;;;;;;5044723;28;20229;-87
2023/01/25 08:50:10;;;;;;;41.10;23.67;;;0.00;99.90;;;;;;5041281;28;20113;-86
2023/01/25 08:52:36;;;;;;;40.70;23.33;;;1.80;99.90;;;;;;5046819;28;20044;-89
2023/01/25 08:55:02;;;;;;;44.47;25.05;;;2.00;99.90;;;;;;5039387;28;20109;-87
2023/01/25 08:57:27;;;;;;;44.58;25.42;;;1.00;99.90;;;;;;5046425;28;20486;-88
2023/01/25 08:59:53;;;;;;;41.58;24.08;;;0.10;99.90;;;;;;5027173;28;20064;-88
2023/01/25 09:02:20;;;;;;;44.47;25.67;;;1.30;99.90;;;;;;5056022;28;20048;-88
2023/01/25 09:04:46;;;;;;;45.28;25.35;;;0.00;99.90;;;;;;5044890;28;20105;-88
2023/01/25 09:07:11;;;;;;;40.45;23.33;;;0.00;99.90;;;;;;5051834;28;20070;-87
2023/01/25 09:09:37;;;;;;;44.53;26.40;;;0.00;99.90;;;;;;5046447;28;20576;-87
2023/01/25 09:12:03;;;;;;;46.65;25.85;;;-0.50;99.90;;;;;;5032949;28;20628;-85
2023/01/25 09:14:29;;;;;;;46.08;26.45;;;;;;;;;;5035470;28;20037;-87
2023/01/25 09:16:55;;;;;;;43.13;25.13;;;0.10;99.90;;;;;;5059584;28;20397;-87
2023/01/25 09:19:21;;;;;;;45.30;26.50;;;0.10;99.90;;;;;;5045585;28;20028;-88
2023/01/25 09:21:47;;;;;;;45.80;26.42;;;0.00;99.90;;;;;;5030062;28;20329;-88
2023/01/25 09:24:13;;;;;;;46.47;26.70;;;0.10;99.90;;;;;;5051575;28;20539;-87
2023/01/25 09:26:40;;;;;;;49.25;27.40;;;0.10;99.90;;;;;;5053936;28;20121;-88
2023/01/25 09:29:07;;;;;;;47.45;26.88;;;0.10;99.90;;;;;;5047871;28;20045;-87
2023/01/25 09:31:33;;;;;;;45.38;25.67;;;0.10;99.90;;;;;;5076154;28;20040;-88
2023/01/25 09:33:59;;;;;;;47.67;27.10;;;0.10;99.90;;;;;;5065366;28;20458;-86
2023/01/25 09:36:25;;;;;;;50.42;28.25;;;0.10;99.90;;;;;;5079570;28;20785;-87
2023/01/25 09:38:52;;;;;;;45.78;26.23;;;0.10;99.90;;;;;;5068473;28;20077;-88
2023/01/25 09:41:36;;;;;;;53.00;29.00;;;0.10;99.90;;;;;;5062095;28;20046;-90
2023/01/25 09:44:27;;;;;;;47.53;26.58;;;0.90;99.90;;;;;;5064597;28;21401;-88
2023/01/25 09:46:59;;;;;;;45.33;26.30;;;0.20;99.90;;;;;;5056096;28;20400;-86
2023/01/25 09:49:34;;;;;;;47.20;25.85;;;1.30;99.90;;;;;;5082241;28;20134;-87
2023/01/25 09:52:09;;;;;;;51.60;27.73;;;0.10;99.90;;;;;;5059412;28;20106;-86
2023/01/25 09:54:44;;;;;;;48.13;26.40;;;0.20;99.90;;;;;;5083741;28;20036;-87
2023/01/25 09:57:32;;;;;;;51.85;28.17;;;0.10;99.90;;;;;;5083173;28;21021;-88
2023/01/25 10:00:02;;;;;;;51.10;27.88;;;0.10;99.90;;;;;;5079173;28;20486;-87
2023/01/25 10:02:33;;;;;;;50.45;27.42;;;0.10;99.90;;;;;;5066505;28;20116;-87
2023/01/25 10:05:10;;;;;;;51.92;27.42;;;0.10;99.90;;;;;;5054377;28;20063;-88
2023/01/25 10:08:07;;;;;;;54.50;28.17;;;0.20;99.90;;;;;;5068612;28;20446;-87
2023/01/25 10:10:43;;;;;;;49.33;26.80;;;0.20;99.90;;;;;;5075963;28;20040;-86
2023/01/25 10:13:20;;;;;;;50.85;27.25;;;0.20;99.90;;;;;;5062286;28;20115;-87
2023/01/25 10:16:00;;;;;;;48.38;24.20;;;0.30;99.90;;;;;;5066683;28;20032;-88
2023/01/25 10:18:39;;;;;;;48.05;25.65;;;0.30;99.90;;;;;;5068110;28;20119;-84
2023/01/25 10:21:30;;;;;;;44.22;23.30;;;1.00;99.90;;;;;;5083241;28;20036;-87
2023/01/25 10:24:44;;;;;;;49.50;25.05;;;0.30;99.90;;;;;;5054340;28;20252;-86
2023/01/25 10:27:15;;;;;;;;;;;0.30;99.90;;;;;;5083067;28;20055;-87
2023/01/25 10:29:42;;;;;;;46.05;23.98;;;0.30;99.90;;;;;;5064726;28;19927;-86
2023/01/25 10:32:30;;;;;;;48.60;24.75;;;0.30;99.90;;;;;;5062786;28;20064;-85
2023/01/25 10:35:00;;;;;;;48.88;24.85;;;0.60;99.90;;;;;;5073258;28;20040;-84
2023/01/25 10:37:30;;;;;;;49.10;24.20;;;2.30;99.90;;;;;;5077332;28;20031;-88
2023/01/25 10:40:03;;;;;;;48.00;24.75;;;0.30;99.90;;;;;;5055734;28;20404;-87
2023/01/25 10:42:39;;;;;;;47.40;23.85;;;0.30;99.90;;;;;;5055786;28;20040;-89
2023/01/25 10:45:13;;;;;;;47.88;24.70;;;-1.90;99.90;;;;;;5063926;28;20105;-86
2023/01/25 10:47:42;;;;;;;49.55;26.20;;;0.40;99.90;;;;;;5078564;28;20036;-86
2023/01/25 10:50:37;;;;;;;48.78;25.23;;;0.40;99.90;;;;;;5063299;28;20060;-87
2023/01/25 10:53:03;;;;;;;47.35;24.48;;;0.40;99.90;;;;;;5076640;28;20054;-87
2023/01/25 10:55:29;;;;;;;46.45;23.38;;;0.40;99.90;;;;;;5063799;28;20040;-87
2023/01/25 10:57:59;;;;;;;49.83;25.02;;;1.50;99.90;;;;;;5032568;28;20043;-85
2023/01/25 11:00:40;;;;;;;47.35;23.85;;;2.30;99.90;;;;;;5055431;28;20040;-85
2023/01/25 11:03:18;;;;;;;51.72;25.52;;;0.40;99.90;;;;;;5068822;28;20063;-87
2023/01/25 11:05:55;;;;;;;47.63;24.55;;;0.50;99.90;;;;;;5056348;28;20126;-85
2023/01/25 11:08:25;;;;;;;50.67;25.10;;;0.40;99.90;;;;;;5081203;28;20032;-89
2023/01/25 11:10:53;;;;;;;49.88;25.25;;;1.30;99.90;;;;;;5078241;28;20036;-88
2023/01/25 11:13:28;;;;;;;50.78;24.65;;;0.50;99.90;;;;;;5078305;28;20039;-85
2023/01/25 11:16:00;;;;;;;49.35;24.70;;;0.50;99.90;;;;;;5066017;28;20197;-87
2023/01/25 11:18:30;;;;;;;47.20;24.95;;;0.60;99.90;;;;;;5076002;28;20106;-90
2023/01/25 11:21:17;;;;;;;49.22;25.70;;;0.60;99.90;;;;;;5067403;28;20066;-86
2023/01/25 11:23:56;;;;;;;50.42;25.35;;;1.90;99.90;;;;;;5076535;28;20044;-88
2023/01/25 11:26:22;;;;;;;51.38;25.92;;;0.60;99.90;;;;;;5086047;28;20067;-88
2023/01/25 11:28:48;;;;;;;49.25;25.20;;;0.50;99.90;;;;;;5033115;28;20133;-89
2023/01/25 11:31:21;;;;;;;50.35;25.90;;;0.70;99.90;;;;;;5081006;28;20051;-89
2023/01/25 11:33:47;;;;;;;48.58;25.10;;;;;;;;;;5077744;28;20040;-88
2023/01/25 11:36:42;;;;;;;50.20;25.25;;;0.80;99.90;;;;;;5050392;28;20037;-87
2023/01/25 11:39:33;;;;;;;47.08;23.38;;;0.80;99.90;;;;;;5059207;28;20070;-86
2023/01/25 11:42:17;;;;;;;47.97;23.30;;;0.80;99.90;;;;;;5062861;28;20040;-87
2023/01/25 11:44:48;;;;;;;;;;;0.60;99.90;;;;;;5055089;28;20076;-90
2023/01/25 11:47:29;;;;;;;50.72;24.08;;;0.90;99.90;;;;;;5061019;28;19930;-89
2023/01/25 11:50:36;;;;;;;48.35;25.45;;;0.90;99.90;;;;;;5067244;28;20036;-86
2023/01/25 11:53:42;;;;;;;49.92;25.27;;;0.90;99.90;;;;;;5064917;28;20507;-91
2023/01/25 11:56:14;;;;;;;56.47;26.45;;;0.90;99.90;;;;;;5067443;28;20072;-90
2023/01/25 11:59:03;;;;;;;52.38;26.05;;;0.90;99.90;;;;;;5064496;28;20242;-89
2023/01/25 12:01:49;;;;;;;51.40;25.90;;;1.00;99.90;;;;;;5054200;28;20028;-91
2023/01/25 12:04:37;;;;;;;50.08;25.17;;;0.90;99.90;;;;;;5077850;28;20052;-89
2023/01/25 12:07:32;;;;;;;47.58;23.52;;;0.90;99.90;;;;;;5059028;28;20043;-85
2023/01/25 12:10:18;;;;;;;46.65;24.00;;;0.90;99.90;;;;;;5077185;28;20056;-86
2023/01/25 12:12:56;;;;;;;49.83;23.98;;;1.00;99.90;;;;;;5063580;28;20040;-87
2023/01/25 12:16:26;;;;;;;49.08;23.95;;;0.90;99.90;;;;;;5068248;28;20197;-86
2023/01/25 12:19:09;;;;;;;49.55;23.23;;;1.00;99.90;;;;;;5003443;28;20041;-88
2023/01/25 12:21:35;;;;;;;51.92;24.92;;;0.90;99.90;;;;;;5061826;28;20048;-89
2023/01/25 12:24:32;;;;;;;51.33;25.08;;;1.00;99.90;;;;;;5057409;28;20048;-89
2023/01/25 12:27:35;;;;;;;48.08;24.30;;;1.00;99.90;;;;;;5065945;28;20036;-91
2023/01/25 12:30:20;;;;;;;47.47;22.95;;;1.00;99.90;;;;;;5072458;28;20123;-89
2023/01/25 12:33:02;;;;;;;47.08;22.60;;;1.00;99.90;;;;;;5072598;28;20119;-88
2023/01/25 12:35:43;;;;;;;51.70;24.30;;;1.00;99.90;;;;;;5069570;28;20040;-88
2023/01/25 12:38:39;;;;;;;48.47;23.92;;;0.90;99.90;;;;;;5088256;28;20096;-91
2023/01/25 12:41:27;;;;;;;50.60;23.85;;;1.00;99.90;;;;;;5068374;28;20056;-89
2023/01/25 12:43:56;;;;;;;52.20;23.27;;;0.60;99.90;;;;;;5066513;28;20044;-91
2023/01/25 12:46:36;;;;;;;52.05;24.33;;;1.00;99.90;;;;;;5060500;28;20036;-90
2023/01/25 12:49:12;;;;;;;53.72;24.65;;;1.00;99.90;;;;;;5068221;28;20045;-90
2023/01/25 12:51:41;;;;;;;57.97;25.33;;;1.00;99.90;;;;;;5064751;28;20075;-90
2023/01/25 12:54:26;;;;;;;51.28;23.23;;;1.00;99.90;;;;;;5070150;28;20036;-89
2023/01/25 12:56:57;;;;;;;48.67;23.13;;;1.00;99.90;;;;;;5070906;28;20041;-91
2023/01/25 12:59:29;;;;;;;51.28;22.75;;;1.00;99.90;;;;;;5066592;28;20197;-89
2023/01/25 13:02:18;;;;;;;55.67;23.77;;;0.90;99.90;;;;;;5085295;28;20044;-90